sensor_id;sensor_type;location;lat;lon;timestamp;pressure;altitude;pressure_sealevel;temperature;humidity
69766;BME280;57039;48.014;21.384;2022-11-18T00:00:08;99449.56;;;4.20;100.00
69766;BME280;57039;48.014;21.384;2022-11-18T00:01:14;99443.31;;;4.24;100.00
69766;BME280;57039;48.014;21.384;2022-11-18T00:02:17;99441.00;;;4.18;100.00
69766;BME280;57039;48.014;21.384;2022-11-18T00:03:20;99437.78;;;4.13;100.00
69766;BME280;57039;48.014;21.384;2022-11-18T00:04:23;99436.16;;;4.10;100.00
69766;BME280;57039;48.014;21.384;2022-11-18T00:05:26;99437.94;;;4.10;100.00
69766;BME280;57039;48.014;21.384;2022-11-18T00:06:29;99443.97;;;4.10;100.00
69766;BME280;57039;48.014;21.384;2022-11-18T00:07:32;99441.56;;;4.06;100.00
69766;BME280;57039;48.014;21.384;2022-11-18T00:08:35;99443.50;;;4.01;100.00
69766;BME280;57039;48.014;21.384;2022-11-18T00:09:37;99447.94;;;3.99;100.00
69766;BME280;57039;48.014;21.384;2022-11-18T00:10:40;99440.59;;;3.89;100.00
69766;BME280;57039;48.014;21.384;2022-11-18T00:11:43;99445.81;;;3.88;100.00
69766;BME280;57039;48.014;21.384;2022-11-18T00:13:04;99447.59;;;3.87;100.00
69766;BME280;57039;48.014;21.384;2022-11-18T00:14:29;99453.06;;;3.81;100.00
69766;BME280;57039;48.014;21.384;2022-11-18T00:15:32;99453.88;;;3.82;100.00
69766;BME280;57039;48.014;21.384;2022-11-18T00:16:35;99454.81;;;3.81;100.00
69766;BME280;57039;48.014;21.384;2022-11-18T00:17:38;99454.03;;;3.79;100.00
69766;BME280;57039;48.014;21.384;2022-11-18T00:18:40;99455.69;;;3.80;100.00
69766;BME280;57039;48.014;21.384;2022-11-18T00:19:43;99459.28;;;3.77;100.00
69766;BME280;57039;48.014;21.384;2022-11-18T00:20:46;99462.06;;;3.73;100.00
69766;BME280;57039;48.014;21.384;2022-11-18T00:21:48;99457.81;;;3.72;100.00
69766;BME280;57039;48.014;21.384;2022-11-18T00:22:51;99455.13;;;3.73;100.00
69766;BME280;57039;48.014;21.384;2022-11-18T00:23:54;99456.69;;;3.77;100.00
69766;BME280;57039;48.014;21.384;2022-11-18T00:24:56;99454.09;;;3.77;100.00
69766;BME280;57039;48.014;21.384;2022-11-18T00:26:07;99456.56;;;3.80;100.00
69766;BME280;57039;48.014;21.384;2022-11-18T00:27:11;99456.56;;;3.80;100.00
69766;BME280;57039;48.014;21.384;2022-11-18T00:28:13;99451.50;;;3.77;100.00
69766;BME280;57039;48.014;21.384;2022-11-18T00:29:16;99445.53;;;3.75;100.00
69766;BME280;57039;48.014;21.384;2022-11-18T00:30:20;99451.66;;;3.74;100.00
69766;BME280;57039;48.014;21.384;2022-11-18T00:31:23;99438.81;;;3.71;100.00
69766;BME280;57039;48.014;21.384;2022-11-18T00:32:26;99434.88;;;3.62;100.00
69766;BME280;57039;48.014;21.384;2022-11-18T00:33:29;99442.28;;;3.70;100.00
69766;BME280;57039;48.014;21.384;2022-11-18T00:34:32;99445.25;;;3.62;100.00
69766;BME280;57039;48.014;21.384;2022-11-18T00:35:34;99449.38;;;3.66;100.00
69766;BME280;57039;48.014;21.384;2022-11-18T00:36:38;99452.66;;;3.70;100.00
69766;BME280;57039;48.014;21.384;2022-11-18T00:37:41;99454.16;;;3.76;100.00
69766;BME280;57039;48.014;21.384;2022-11-18T00:38:44;99455.78;;;3.78;100.00
69766;BME280;57039;48.014;21.384;2022-11-18T00:39:46;99450.50;;;3.80;100.00
69766;BME280;57039;48.014;21.384;2022-11-18T00:40:58;99451.50;;;3.77;100.00
69766;BME280;57039;48.014;21.384;2022-11-18T00:42:00;99453.19;;;3.78;100.00
69766;BME280;57039;48.014;21.384;2022-11-18T00:43:21;99440.28;;;3.77;100.00
69766;BME280;57039;48.014;21.384;2022-11-18T00:44:24;99432.44;;;3.78;100.00
69766;BME280;57039;48.014;21.384;2022-11-18T00:45:27;99435.03;;;3.78;100.00
69766;BME280;57039;48.014;21.384;2022-11-18T00:46:30;99429.97;;;3.75;100.00
69766;BME280;57039;48.014;21.384;2022-11-18T00:47:33;99430.75;;;3.77;100.00
69766;BME280;57039;48.014;21.384;2022-11-18T00:48:36;99423.16;;;3.73;100.00
69766;BME280;57039;48.014;21.384;2022-11-18T00:49:39;99434.66;;;3.67;100.00
69766;BME280;57039;48.014;21.384;2022-11-18T00:50:41;99430.37;;;3.66;100.00
69766;BME280;57039;48.014;21.384;2022-11-18T00:51:45;99429.47;;;3.67;100.00
69766;BME280;57039;48.014;21.384;2022-11-18T00:52:47;99426.81;;;3.69;100.00
69766;BME280;57039;48.014;21.384;2022-11-18T00:53:50;99428.56;;;3.68;100.00
69766;BME280;57039;48.014;21.384;2022-11-18T00:54:53;99431.16;;;3.68;100.00
69766;BME280;57039;48.014;21.384;2022-11-18T00:55:56;99420.19;;;3.61;100.00
69766;BME280;57039;48.014;21.384;2022-11-18T00:56:58;99432.28;;;3.62;100.00
69766;BME280;57039;48.014;21.384;2022-11-18T00:58:01;99428.63;;;3.66;100.00
69766;BME280;57039;48.014;21.384;2022-11-18T00:59:04;99429.69;;;3.62;100.00
69766;BME280;57039;48.014;21.384;2022-11-18T01:00:07;99428.06;;;3.60;100.00
69766;BME280;57039;48.014;21.384;2022-11-18T01:01:10;99424.78;;;3.56;100.00
69766;BME280;57039;48.014;21.384;2022-11-18T01:02:13;99423.34;;;3.49;100.00
69766;BME280;57039;48.014;21.384;2022-11-18T01:03:17;99426.62;;;3.53;100.00
69766;BME280;57039;48.014;21.384;2022-11-18T01:04:19;99425.59;;;3.57;100.00
69766;BME280;57039;48.014;21.384;2022-11-18T01:05:22;99425.59;;;3.57;100.00
69766;BME280;57039;48.014;21.384;2022-11-18T01:06:25;99429.22;;;3.53;100.00
69766;BME280;57039;48.014;21.384;2022-11-18T01:07:28;99424.16;;;3.50;100.00
69766;BME280;57039;48.014;21.384;2022-11-18T01:08:30;99425.66;;;3.55;100.00
69766;BME280;57039;48.014;21.384;2022-11-18T01:09:33;99433.38;;;3.57;100.00
69766;BME280;57039;48.014;21.384;2022-11-18T01:10:36;99426.31;;;3.60;100.00
69766;BME280;57039;48.014;21.384;2022-11-18T01:11:39;99422.19;;;3.56;100.00
69766;BME280;57039;48.014;21.384;2022-11-18T01:13:00;99423.84;;;3.57;100.00
69766;BME280;57039;48.014;21.384;2022-11-18T01:14:23;99424.78;;;3.56;100.00
69766;BME280;57039;48.014;21.384;2022-11-18T01:15:26;99419.50;;;3.58;100.00
69766;BME280;57039;48.014;21.384;2022-11-18T01:16:29;99413.47;;;3.57;100.00
69766;BME280;57039;48.014;21.384;2022-11-18T01:17:32;99417.97;;;3.54;100.00
69766;BME280;57039;48.014;21.384;2022-11-18T01:18:35;99420.34;;;3.58;100.00
69766;BME280;57039;48.014;21.384;2022-11-18T01:19:37;99417.00;;;3.56;100.00
69766;BME280;57039;48.014;21.384;2022-11-18T01:20:40;99420.41;;;3.57;100.00
69766;BME280;57039;48.014;21.384;2022-11-18T01:21:43;99418.72;;;3.56;100.00
69766;BME280;57039;48.014;21.384;2022-11-18T01:22:55;99418.16;;;3.49;100.00
69766;BME280;57039;48.014;21.384;2022-11-18T01:23:57;99415.81;;;3.43;100.00
69766;BME280;57039;48.014;21.384;2022-11-18T01:25:00;99414.84;;;3.46;100.00
69766;BME280;57039;48.014;21.384;2022-11-18T01:26:05;99406.16;;;3.47;100.00
69766;BME280;57039;48.014;21.384;2022-11-18T01:27:08;99406.94;;;3.49;100.00
69766;BME280;57039;48.014;21.384;2022-11-18T01:28:12;99409.41;;;3.52;100.00
69766;BME280;57039;48.014;21.384;2022-11-18T01:29:18;99410.19;;;3.54;100.00
69766;BME280;57039;48.014;21.384;2022-11-18T01:30:22;99411.28;;;3.48;100.00
69766;BME280;57039;48.014;21.384;2022-11-18T01:31:25;99411.34;;;3.47;100.00
69766;BME280;57039;48.014;21.384;2022-11-18T01:32:28;99406.87;;;3.50;100.00
69766;BME280;57039;48.014;21.384;2022-11-18T01:33:31;99405.06;;;3.52;100.00
69766;BME280;57039;48.014;21.384;2022-11-18T01:34:34;99404.34;;;3.49;100.00
69766;BME280;57039;48.014;21.384;2022-11-18T01:35:38;99404.63;;;3.42;100.00
69766;BME280;57039;48.014;21.384;2022-11-18T01:36:41;99404.63;;;3.42;100.00
69766;BME280;57039;48.014;21.384;2022-11-18T01:37:44;99396.06;;;3.40;100.00
69766;BME280;57039;48.014;21.384;2022-11-18T01:38:47;99396.91;;;3.41;100.00
69766;BME280;57039;48.014;21.384;2022-11-18T01:39:50;99391.66;;;3.42;100.00
69766;BME280;57039;48.014;21.384;2022-11-18T01:40:53;99394.25;;;3.42;100.00
69766;BME280;57039;48.014;21.384;2022-11-18T01:41:56;99395.91;;;3.43;100.00
69766;BME280;57039;48.014;21.384;2022-11-18T01:43:00;99396.84;;;3.42;100.00
69766;BME280;57039;48.014;21.384;2022-11-18T01:44:49;99394.19;;;3.44;100.00
69766;BME280;57039;48.014;21.384;2022-11-18T01:45:34;99394.91;;;3.48;100.00
69766;BME280;57039;48.014;21.384;2022-11-18T01:46:39;99388.53;;;3.55;100.00
69766;BME280;57039;48.014;21.384;2022-11-18T01:47:48;99386.75;;;3.55;100.00
69766;BME280;57039;48.014;21.384;2022-11-18T01:49:05;99388.53;;;3.55;100.00
69766;BME280;57039;48.014;21.384;2022-11-18T01:50:18;99376.66;;;3.49;100.00
69766;BME280;57039;48.014;21.384;2022-11-18T01:51:47;99377.78;;;3.43;100.00
69766;BME280;57039;48.014;21.384;2022-11-18T01:52:54;99368.72;;;3.33;100.00
69766;BME280;57039;48.014;21.384;2022-11-18T01:54:08;99369.16;;;3.43;100.00
69766;BME280;57039;48.014;21.384;2022-11-18T01:55:20;99354.75;;;3.17;100.00
69766;BME280;57039;48.014;21.384;2022-11-18T01:56:38;99354.50;;;3.23;100.00
69766;BME280;57039;48.014;21.384;2022-11-18T01:57:45;99365.25;;;3.14;100.00
69766;BME280;57039;48.014;21.384;2022-11-18T01:58:56;99368.63;;;3.16;100.00
69766;BME280;57039;48.014;21.384;2022-11-18T02:00:02;99369.44;;;3.16;100.00
69766;BME280;57039;48.014;21.384;2022-11-18T02:01:06;99376.91;;;3.24;100.00
69766;BME280;57039;48.014;21.384;2022-11-18T02:02:12;99375.16;;;3.25;100.00
69766;BME280;57039;48.014;21.384;2022-11-18T02:03:16;99379.50;;;3.24;100.00
69766;BME280;57039;48.014;21.384;2022-11-18T02:04:20;99377.75;;;3.25;100.00
69766;BME280;57039;48.014;21.384;2022-11-18T02:05:24;99381.69;;;3.33;100.00
69766;BME280;57039;48.014;21.384;2022-11-18T02:06:28;99377.44;;;3.32;100.00
69766;BME280;57039;48.014;21.384;2022-11-18T02:07:33;99366.47;;;3.26;100.00
69766;BME280;57039;48.014;21.384;2022-11-18T02:08:38;99373.53;;;3.22;100.00
69766;BME280;57039;48.014;21.384;2022-11-18T02:09:42;99370.69;;;3.28;100.00
69766;BME280;57039;48.014;21.384;2022-11-18T02:10:45;99367.91;;;3.33;100.00
69766;BME280;57039;48.014;21.384;2022-11-18T02:11:48;99368.91;;;3.29;100.00
69766;BME280;57039;48.014;21.384;2022-11-18T02:12:55;99369.78;;;3.29;100.00
69766;BME280;57039;48.014;21.384;2022-11-18T02:14:04;99364.12;;;3.19;100.00
69766;BME280;57039;48.014;21.384;2022-11-18T02:15:08;99371.59;;;3.27;100.00
69766;BME280;57039;48.014;21.384;2022-11-18T02:16:18;99373.22;;;3.30;100.00
69766;BME280;57039;48.014;21.384;2022-11-18T02:17:39;99374.09;;;3.29;100.00
69766;BME280;57039;48.014;21.384;2022-11-18T02:18:57;99371.47;;;3.30;100.00
69766;BME280;57039;48.014;21.384;2022-11-18T02:22:52;99373.00;;;3.34;100.00
69766;BME280;57039;48.014;21.384;2022-11-18T02:29:19;99365.09;;;3.37;100.00
69766;BME280;57039;48.014;21.384;2022-11-18T02:30:29;99351.66;;;3.29;100.00
69766;BME280;57039;48.014;21.384;2022-11-18T02:34:21;99364.12;;;3.40;100.00
69766;BME280;57039;48.014;21.384;2022-11-18T02:35:46;99375.31;;;3.40;100.00
69766;BME280;57039;48.014;21.384;2022-11-18T02:36:58;99370.00;;;3.43;100.00
69766;BME280;57039;48.014;21.384;2022-11-18T02:38:06;99374.22;;;3.46;100.00
69766;BME280;57039;48.014;21.384;2022-11-18T02:39:16;99376.06;;;3.44;100.00
69766;BME280;57039;48.014;21.384;2022-11-18T02:40:25;99371.47;;;3.49;100.00
69766;BME280;57039;48.014;21.384;2022-11-18T02:41:33;99365.59;;;3.46;100.00
69766;BME280;57039;48.014;21.384;2022-11-18T02:42:37;99357.03;;;3.43;100.00
69766;BME280;57039;48.014;21.384;2022-11-18T02:43:48;99359.00;;;3.38;100.00
69766;BME280;57039;48.014;21.384;2022-11-18T02:44:57;99357.31;;;3.37;100.00
69766;BME280;57039;48.014;21.384;2022-11-18T02:46:05;99373.84;;;3.35;100.00
69766;BME280;57039;48.014;21.384;2022-11-18T02:47:12;99374.75;;;3.34;100.00
69766;BME280;57039;48.014;21.384;2022-11-18T02:48:17;99374.69;;;3.35;100.00
69766;BME280;57039;48.014;21.384;2022-11-18T02:49:30;99376.50;;;3.33;100.00
69766;BME280;57039;48.014;21.384;2022-11-18T02:50:36;99385.34;;;3.29;100.00
69766;BME280;57039;48.014;21.384;2022-11-18T02:51:42;99385.25;;;3.31;100.00
69766;BME280;57039;48.014;21.384;2022-11-18T02:52:49;99379.09;;;3.33;100.00
69766;BME280;57039;48.014;21.384;2022-11-18T02:53:57;99381.59;;;3.35;100.00
69766;BME280;57039;48.014;21.384;2022-11-18T02:55:05;99379.03;;;3.35;100.00
69766;BME280;57039;48.014;21.384;2022-11-18T02:56:09;99379.88;;;3.35;100.00
69766;BME280;57039;48.014;21.384;2022-11-18T02:57:13;99374.63;;;3.37;100.00
69766;BME280;57039;48.014;21.384;2022-11-18T02:58:19;99373.91;;;3.33;100.00
69766;BME280;57039;48.014;21.384;2022-11-18T02:59:22;99364.66;;;3.28;100.00
69766;BME280;57039;48.014;21.384;2022-11-18T03:00:25;99374.69;;;3.35;100.00
69766;BME280;57039;48.014;21.384;2022-11-18T03:01:30;99370.41;;;3.34;100.00
69766;BME280;57039;48.014;21.384;2022-11-18T03:02:42;99365.88;;;3.39;100.00
69766;BME280;57039;48.014;21.384;2022-11-18T03:03:45;99365.91;;;3.38;100.00
69766;BME280;57039;48.014;21.384;2022-11-18T03:04:52;99357.25;;;3.39;100.00
69766;BME280;57039;48.014;21.384;2022-11-18T03:07:24;99350.19;;;3.42;100.00
69766;BME280;57039;48.014;21.384;2022-11-18T03:08:41;99346.81;;;3.40;100.00
69766;BME280;57039;48.014;21.384;2022-11-18T03:09:47;99353.19;;;3.33;100.00
69766;BME280;57039;48.014;21.384;2022-11-18T03:11:06;99341.97;;;3.33;100.00
69766;BME280;57039;48.014;21.384;2022-11-18T03:15:00;99342.94;;;3.30;100.00
69766;BME280;57039;48.014;21.384;2022-11-18T03:16:13;99347.88;;;3.36;100.00
69766;BME280;57039;48.014;21.384;2022-11-18T03:17:42;99353.19;;;3.33;100.00
69766;BME280;57039;48.014;21.384;2022-11-18T03:19:10;99354.72;;;3.37;100.00
69766;BME280;57039;48.014;21.384;2022-11-18T03:20:25;99355.63;;;3.36;100.00
69766;BME280;57039;48.014;21.384;2022-11-18T03:21:37;99361.09;;;3.30;100.00
69766;BME280;57039;48.014;21.384;2022-11-18T03:22:46;99363.53;;;3.33;100.00
69766;BME280;57039;48.014;21.384;2022-11-18T03:24:06;99360.03;;;3.34;100.00
69766;BME280;57039;48.014;21.384;2022-11-18T03:25:27;99366.13;;;3.33;100.00
69766;BME280;57039;48.014;21.384;2022-11-18T03:26:35;99359.91;;;3.37;100.00
69766;BME280;57039;48.014;21.384;2022-11-18T03:28:24;99363.28;;;3.39;100.00
69766;BME280;57039;48.014;21.384;2022-11-18T03:29:27;99354.03;;;3.34;100.00
69766;BME280;57039;48.014;21.384;2022-11-18T03:30:32;99348.19;;;3.29;100.00
69766;BME280;57039;48.014;21.384;2022-11-18T03:31:41;99344.63;;;3.31;100.00
69766;BME280;57039;48.014;21.384;2022-11-18T03:33:01;99342.12;;;3.30;100.00
69766;BME280;57039;48.014;21.384;2022-11-18T03:34:22;99348.28;;;3.27;100.00
69766;BME280;57039;48.014;21.384;2022-11-18T03:35:32;99341.41;;;3.26;100.00
69766;BME280;57039;48.014;21.384;2022-11-18T03:36:40;99342.56;;;3.19;100.00
69766;BME280;57039;48.014;21.384;2022-11-18T03:37:46;99347.56;;;3.24;100.00
69766;BME280;57039;48.014;21.384;2022-11-18T03:38:53;99337.91;;;3.27;100.00
69766;BME280;57039;48.014;21.384;2022-11-18T03:40:08;99321.56;;;3.25;100.00
69766;BME280;57039;48.014;21.384;2022-11-18T03:41:16;99337.75;;;3.30;100.00
69766;BME280;57039;48.014;21.384;2022-11-18T03:42:42;99332.59;;;3.30;100.00
69766;BME280;57039;48.014;21.384;2022-11-18T03:43:50;99335.22;;;3.29;100.00
69766;BME280;57039;48.014;21.384;2022-11-18T03:45:02;99335.31;;;3.27;100.00
69766;BME280;57039;48.014;21.384;2022-11-18T03:46:15;99330.91;;;3.29;100.00
69766;BME280;57039;48.014;21.384;2022-11-18T03:47:27;99319.75;;;3.27;100.00
69766;BME280;57039;48.014;21.384;2022-11-18T03:48:38;99312.25;;;3.21;100.00
69766;BME280;57039;48.014;21.384;2022-11-18T03:49:45;99314.75;;;3.23;100.00
69766;BME280;57039;48.014;21.384;2022-11-18T03:50:55;99309.44;;;3.26;100.00
69766;BME280;57039;48.014;21.384;2022-11-18T03:52:05;99305.28;;;3.23;100.00
69766;BME280;57039;48.014;21.384;2022-11-18T03:53:11;99311.44;;;3.20;100.00
69766;BME280;57039;48.014;21.384;2022-11-18T03:54:19;99303.44;;;3.25;100.00
69766;BME280;57039;48.014;21.384;2022-11-18T03:55:26;99306.09;;;3.24;100.00
69766;BME280;57039;48.014;21.384;2022-11-18T03:56:35;99296.00;;;3.17;100.00
69766;BME280;57039;48.014;21.384;2022-11-18T03:59:06;99296.72;;;3.21;100.00
69766;BME280;57039;48.014;21.384;2022-11-18T04:00:13;99295.88;;;3.20;100.00
69766;BME280;57039;48.014;21.384;2022-11-18T04:01:38;99293.47;;;3.16;100.00
69766;BME280;57039;48.014;21.384;2022-11-18T04:02:44;99298.38;;;3.22;100.00
69766;BME280;57039;48.014;21.384;2022-11-18T04:03:47;99295.09;;;3.18;100.00
69766;BME280;57039;48.014;21.384;2022-11-18T04:04:51;99296.91;;;3.16;100.00
69766;BME280;57039;48.014;21.384;2022-11-18T04:06:02;99300.59;;;3.11;100.00
69766;BME280;57039;48.014;21.384;2022-11-18T04:08:21;99299.50;;;3.16;100.00
69766;BME280;57039;48.014;21.384;2022-11-18T04:09:31;99298.66;;;3.16;100.00
69766;BME280;57039;48.014;21.384;2022-11-18T04:12:02;99310.81;;;3.14;100.00
69766;BME280;57039;48.014;21.384;2022-11-18T04:13:09;99306.66;;;3.11;100.00
69766;BME280;57039;48.014;21.384;2022-11-18T04:14:15;99303.12;;;3.12;100.00
69766;BME280;57039;48.014;21.384;2022-11-18T04:15:20;99306.56;;;3.13;100.00
69766;BME280;57039;48.014;21.384;2022-11-18T04:16:22;99301.31;;;3.14;100.00
69766;BME280;57039;48.014;21.384;2022-11-18T04:17:27;99303.12;;;3.12;100.00
69766;BME280;57039;48.014;21.384;2022-11-18T04:18:30;99290.38;;;3.08;100.00
69766;BME280;57039;48.014;21.384;2022-11-18T04:19:34;99303.84;;;3.16;100.00
69766;BME280;57039;48.014;21.384;2022-11-18T04:20:37;99311.56;;;3.17;100.00
69766;BME280;57039;48.014;21.384;2022-11-18T04:21:40;99301.59;;;3.08;100.00
69766;BME280;57039;48.014;21.384;2022-11-18T04:22:42;99305.66;;;3.14;100.00
69766;BME280;57039;48.014;21.384;2022-11-18T04:23:45;99306.38;;;3.17;100.00
69766;BME280;57039;48.014;21.384;2022-11-18T04:24:48;99307.06;;;3.21;100.00
69766;BME280;57039;48.014;21.384;2022-11-18T04:25:51;99302.03;;;3.18;100.00
69766;BME280;57039;48.014;21.384;2022-11-18T04:26:53;99300.19;;;3.20;100.00
69766;BME280;57039;48.014;21.384;2022-11-18T04:27:57;99305.03;;;3.28;100.00
69766;BME280;57039;48.014;21.384;2022-11-18T04:29:00;99299.03;;;3.27;100.00
69766;BME280;57039;48.014;21.384;2022-11-18T04:30:04;99292.91;;;3.28;100.00
69766;BME280;57039;48.014;21.384;2022-11-18T04:31:07;99293.06;;;3.25;100.00
69766;BME280;57039;48.014;21.384;2022-11-18T04:32:10;99288.66;;;3.27;100.00
69766;BME280;57039;48.014;21.384;2022-11-18T04:33:12;99289.72;;;3.23;100.00
69766;BME280;57039;48.014;21.384;2022-11-18T04:34:15;99291.59;;;3.19;100.00
69766;BME280;57039;48.014;21.384;2022-11-18T04:35:18;99294.03;;;3.23;100.00
69766;BME280;57039;48.014;21.384;2022-11-18T04:36:21;99287.88;;;3.25;100.00
69766;BME280;57039;48.014;21.384;2022-11-18T04:37:27;99280.81;;;3.29;100.00
69766;BME280;57039;48.014;21.384;2022-11-18T04:38:33;99291.25;;;3.27;100.00
69766;BME280;57039;48.014;21.384;2022-11-18T04:39:36;99283.53;;;3.26;100.00
69766;BME280;57039;48.014;21.384;2022-11-18T04:40:39;99288.84;;;3.23;100.00
69766;BME280;57039;48.014;21.384;2022-11-18T04:41:43;99285.56;;;3.19;100.00
69766;BME280;57039;48.014;21.384;2022-11-18T04:42:58;99284.91;;;3.14;100.00
69766;BME280;57039;48.014;21.384;2022-11-18T04:44:00;99284.03;;;3.15;100.00
69766;BME280;57039;48.014;21.384;2022-11-18T04:45:15;99286.47;;;3.18;100.00
69766;BME280;57039;48.014;21.384;2022-11-18T04:46:17;99287.22;;;3.20;100.00
69766;BME280;57039;48.014;21.384;2022-11-18T04:47:20;99287.13;;;3.23;100.00
69766;BME280;57039;48.014;21.384;2022-11-18T04:48:23;99282.78;;;3.24;100.00
69766;BME280;57039;48.014;21.384;2022-11-18T04:49:27;99285.37;;;3.24;100.00
69766;BME280;57039;48.014;21.384;2022-11-18T04:50:30;99285.44;;;3.22;100.00
69766;BME280;57039;48.014;21.384;2022-11-18T04:51:33;99286.34;;;3.21;100.00
69766;BME280;57039;48.014;21.384;2022-11-18T04:52:35;99294.03;;;3.23;100.00
69766;BME280;57039;48.014;21.384;2022-11-18T04:53:38;99292.31;;;3.23;100.00
69766;BME280;57039;48.014;21.384;2022-11-18T04:54:43;99302.03;;;3.18;100.00
69766;BME280;57039;48.014;21.384;2022-11-18T04:55:46;99294.00;;;3.04;100.00
69766;BME280;57039;48.014;21.384;2022-11-18T04:56:49;99298.09;;;3.09;100.00
69766;BME280;57039;48.014;21.384;2022-11-18T04:57:52;99305.78;;;3.11;100.00
69766;BME280;57039;48.014;21.384;2022-11-18T04:58:57;99308.31;;;3.12;100.00
69766;BME280;57039;48.014;21.384;2022-11-18T05:00:05;99319.00;;;3.05;100.00
69766;BME280;57039;48.014;21.384;2022-11-18T05:01:09;99315.31;;;3.10;100.00
69766;BME280;57039;48.014;21.384;2022-11-18T05:02:12;99326.66;;;3.08;100.00
69766;BME280;57039;48.014;21.384;2022-11-18T05:03:15;99324.69;;;3.13;100.00
69766;BME280;57039;48.014;21.384;2022-11-18T05:04:20;99331.00;;;3.07;100.00
69766;BME280;57039;48.014;21.384;2022-11-18T05:05:23;99335.91;;;3.13;100.00
69766;BME280;57039;48.014;21.384;2022-11-18T05:06:27;99340.06;;;3.17;100.00
69766;BME280;57039;48.014;21.384;2022-11-18T05:07:30;99327.94;;;3.18;100.00
69766;BME280;57039;48.014;21.384;2022-11-18T05:08:33;99328.78;;;3.18;100.00
69766;BME280;57039;48.014;21.384;2022-11-18T05:09:38;99336.47;;;3.20;100.00
69766;BME280;57039;48.014;21.384;2022-11-18T05:10:40;99334.56;;;3.05;100.00
69766;BME280;57039;48.014;21.384;2022-11-18T05:11:44;99335.28;;;3.08;100.00
69766;BME280;57039;48.014;21.384;2022-11-18T05:13:05;99343.94;;;3.07;100.00
69766;BME280;57039;48.014;21.384;2022-11-18T05:14:08;99342.12;;;3.09;100.00
69766;BME280;57039;48.014;21.384;2022-11-18T05:15:21;99348.03;;;3.13;100.00
69766;BME280;57039;48.014;21.384;2022-11-18T05:16:27;99342.66;;;3.17;100.00
69766;BME280;57039;48.014;21.384;2022-11-18T05:17:33;99339.19;;;3.17;100.00
69766;BME280;57039;48.014;21.384;2022-11-18T05:18:37;99327.84;;;3.19;100.00
69766;BME280;57039;48.014;21.384;2022-11-18T05:19:40;99320.81;;;3.23;100.00
69766;BME280;57039;48.014;21.384;2022-11-18T05:20:43;99316.38;;;3.25;100.00
69766;BME280;57039;48.014;21.384;2022-11-18T05:21:46;99311.91;;;3.29;100.00
69766;BME280;57039;48.014;21.384;2022-11-18T05:22:49;99316.19;;;3.30;100.00
69766;BME280;57039;48.014;21.384;2022-11-18T05:23:51;99311.97;;;3.27;100.00
69766;BME280;57039;48.014;21.384;2022-11-18T05:24:54;99286.47;;;3.18;100.00
69766;BME280;57039;48.014;21.384;2022-11-18T05:25:57;99309.25;;;3.30;100.00
69766;BME280;57039;48.014;21.384;2022-11-18T05:27:04;99308.34;;;3.31;100.00
69766;BME280;57039;48.014;21.384;2022-11-18T05:28:07;99304.47;;;3.21;100.00
69766;BME280;57039;48.014;21.384;2022-11-18T05:29:10;99308.03;;;3.18;100.00
69766;BME280;57039;48.014;21.384;2022-11-18T05:30:14;99298.22;;;3.06;100.00
69766;BME280;57039;48.014;21.384;2022-11-18T05:31:17;99296.47;;;3.07;100.00
69766;BME280;57039;48.014;21.384;2022-11-18T05:32:23;99298.09;;;3.09;100.00
69766;BME280;57039;48.014;21.384;2022-11-18T05:33:27;99287.88;;;3.06;100.00
69766;BME280;57039;48.014;21.384;2022-11-18T05:34:29;99298.94;;;3.10;100.00
69766;BME280;57039;48.014;21.384;2022-11-18T05:35:35;99305.91;;;3.08;100.00
69766;BME280;57039;48.014;21.384;2022-11-18T05:36:41;99296.75;;;3.01;100.00
69766;BME280;57039;48.014;21.384;2022-11-18T05:37:45;99297.53;;;3.03;100.00
69766;BME280;57039;48.014;21.384;2022-11-18T05:38:48;99302.56;;;3.06;100.00
69766;BME280;57039;48.014;21.384;2022-11-18T05:39:51;99295.78;;;3.03;100.00
69766;BME280;57039;48.014;21.384;2022-11-18T05:40:54;99301.66;;;3.07;100.00
69766;BME280;57039;48.014;21.384;2022-11-18T05:41:56;99308.50;;;3.08;100.00
69766;BME280;57039;48.014;21.384;2022-11-18T05:43:18;99300.94;;;3.03;100.00
69766;BME280;57039;48.014;21.384;2022-11-18T05:44:21;99309.56;;;3.04;100.00
69766;BME280;57039;48.014;21.384;2022-11-18T05:45:24;99306.13;;;3.03;100.00
69766;BME280;57039;48.014;21.384;2022-11-18T05:46:27;99311.44;;;3.00;100.00
69766;BME280;57039;48.014;21.384;2022-11-18T05:47:29;99310.75;;;2.96;100.00
69766;BME280;57039;48.014;21.384;2022-11-18T05:48:52;99305.75;;;2.92;100.00
69766;BME280;57039;48.014;21.384;2022-11-18T05:49:56;99314.09;;;2.98;100.00
69766;BME280;57039;48.014;21.384;2022-11-18T05:50:58;99319.28;;;2.98;100.00
69766;BME280;57039;48.014;21.384;2022-11-18T05:52:01;99319.09;;;3.03;100.00
69766;BME280;57039;48.014;21.384;2022-11-18T05:53:05;99327.03;;;2.98;100.00
69766;BME280;57039;48.014;21.384;2022-11-18T05:54:09;99327.03;;;2.98;100.00
69766;BME280;57039;48.014;21.384;2022-11-18T05:55:14;99326.03;;;3.03;100.00
69766;BME280;57039;48.014;21.384;2022-11-18T05:56:32;99336.69;;;2.95;100.00
69766;BME280;57039;48.014;21.384;2022-11-18T05:57:37;99331.25;;;3.01;100.00
69766;BME280;57039;48.014;21.384;2022-11-18T05:58:43;99331.34;;;3.00;100.00
69766;BME280;57039;48.014;21.384;2022-11-18T05:59:45;99310.09;;;2.91;100.00
69766;BME280;57039;48.014;21.384;2022-11-18T06:00:52;99324.28;;;3.03;100.00
69766;BME280;57039;48.014;21.384;2022-11-18T06:02:18;99330.22;;;3.05;100.00
69766;BME280;57039;48.014;21.384;2022-11-18T06:03:26;99325.09;;;3.04;100.00
69766;BME280;57039;48.014;21.384;2022-11-18T06:05:41;99315.37;;;3.09;100.00
69766;BME280;57039;48.014;21.384;2022-11-18T06:06:46;99316.28;;;3.08;100.00
69766;BME280;57039;48.014;21.384;2022-11-18T06:07:52;99312.66;;;3.12;100.00